sensor_id;sensor_type;location;lat;lon;timestamp;P1;durP1;ratioP1;P2;durP2;ratioP2
49043;SDS011;34860;48.066;14.124;2024-03-08T00:02:02;18.50;;;7.43;;
49043;SDS011;34860;48.066;14.124;2024-03-08T00:04:53;10.52;;;5.97;;
49043;SDS011;34860;48.066;14.124;2024-03-08T00:07:42;14.65;;;5.97;;
49043;SDS011;34860;48.066;14.124;2024-03-08T00:10:31;20.48;;;7.30;;
49043;SDS011;34860;48.066;14.124;2024-03-08T00:13:25;16.85;;;6.72;;
49043;SDS011;34860;48.066;14.124;2024-03-08T00:16:14;27.35;;;8.60;;
49043;SDS011;34860;48.066;14.124;2024-03-08T00:19:02;36.20;;;9.90;;
49043;SDS011;34860;48.066;14.124;2024-03-08T00:21:52;18.58;;;7.38;;
49043;SDS011;34860;48.066;14.124;2024-03-08T00:24:42;18.88;;;7.90;;
49043;SDS011;34860;48.066;14.124;2024-03-08T00:27:31;19.42;;;7.13;;
49043;SDS011;34860;48.066;14.124;2024-03-08T00:30:19;15.30;;;7.20;;
49043;SDS011;34860;48.066;14.124;2024-03-08T00:33:09;21.40;;;8.30;;
49043;SDS011;34860;48.066;14.124;2024-03-08T00:35:58;22.00;;;6.80;;
49043;SDS011;34860;48.066;14.124;2024-03-08T00:38:48;20.35;;;6.93;;
49043;SDS011;34860;48.066;14.124;2024-03-08T00:41:37;26.90;;;9.60;;
49043;SDS011;34860;48.066;14.124;2024-03-08T00:44:25;30.50;;;9.00;;
49043;SDS011;34860;48.066;14.124;2024-03-08T00:47:14;26.00;;;9.10;;
49043;SDS011;34860;48.066;14.124;2024-03-08T00:50:03;26.52;;;7.75;;
49043;SDS011;34860;48.066;14.124;2024-03-08T00:52:52;22.98;;;8.25;;
49043;SDS011;34860;48.066;14.124;2024-03-08T00:55:42;24.70;;;9.15;;
49043;SDS011;34860;48.066;14.124;2024-03-08T00:58:33;26.13;;;10.80;;
49043;SDS011;34860;48.066;14.124;2024-03-08T01:01:21;25.65;;;9.10;;
49043;SDS011;34860;48.066;14.124;2024-03-08T01:04:11;33.80;;;8.77;;
49043;SDS011;34860;48.066;14.124;2024-03-08T01:07:00;30.45;;;10.50;;
49043;SDS011;34860;48.066;14.124;2024-03-08T01:09:48;28.08;;;10.60;;
49043;SDS011;34860;48.066;14.124;2024-03-08T01:12:40;31.17;;;9.15;;
49043;SDS011;34860;48.066;14.124;2024-03-08T01:15:29;27.27;;;10.65;;
49043;SDS011;34860;48.066;14.124;2024-03-08T01:18:18;31.73;;;10.75;;
49043;SDS011;34860;48.066;14.124;2024-03-08T01:21:06;38.03;;;12.32;;
49043;SDS011;34860;48.066;14.124;2024-03-08T01:23:55;22.70;;;10.27;;
49043;SDS011;34860;48.066;14.124;2024-03-08T01:26:43;35.45;;;11.32;;
49043;SDS011;34860;48.066;14.124;2024-03-08T01:29:34;28.42;;;9.95;;
49043;SDS011;34860;48.066;14.124;2024-03-08T01:32:22;29.80;;;10.27;;
49043;SDS011;34860;48.066;14.124;2024-03-08T01:35:11;30.17;;;9.95;;
49043;SDS011;34860;48.066;14.124;2024-03-08T01:38:00;35.78;;;9.98;;
49043;SDS011;34860;48.066;14.124;2024-03-08T01:40:48;34.25;;;10.05;;
49043;SDS011;34860;48.066;14.124;2024-03-08T01:43:36;35.58;;;11.55;;
49043;SDS011;34860;48.066;14.124;2024-03-08T01:46:27;27.90;;;10.23;;
49043;SDS011;34860;48.066;14.124;2024-03-08T01:49:16;24.05;;;8.88;;
49043;SDS011;34860;48.066;14.124;2024-03-08T01:52:07;36.33;;;9.95;;
49043;SDS011;34860;48.066;14.124;2024-03-08T01:54:56;26.55;;;10.88;;
49043;SDS011;34860;48.066;14.124;2024-03-08T01:57:47;34.65;;;10.15;;
49043;SDS011;34860;48.066;14.124;2024-03-08T02:00:36;34.35;;;12.88;;
49043;SDS011;34860;48.066;14.124;2024-03-08T02:03:29;34.70;;;10.18;;
49043;SDS011;34860;48.066;14.124;2024-03-08T02:06:18;36.45;;;12.65;;
49043;SDS011;34860;48.066;14.124;2024-03-08T02:09:07;37.17;;;14.07;;
49043;SDS011;34860;48.066;14.124;2024-03-08T02:11:56;39.72;;;10.77;;
49043;SDS011;34860;48.066;14.124;2024-03-08T02:14:50;28.60;;;10.32;;
49043;SDS011;34860;48.066;14.124;2024-03-08T02:17:39;27.88;;;10.45;;
49043;SDS011;34860;48.066;14.124;2024-03-08T02:20:29;32.38;;;10.10;;
49043;SDS011;34860;48.066;14.124;2024-03-08T02:23:18;37.70;;;14.05;;
49043;SDS011;34860;48.066;14.124;2024-03-08T02:26:07;29.25;;;10.13;;
49043;SDS011;34860;48.066;14.124;2024-03-08T02:28:56;26.63;;;10.93;;
49043;SDS011;34860;48.066;14.124;2024-03-08T02:31:44;27.48;;;10.45;;
49043;SDS011;34860;48.066;14.124;2024-03-08T02:34:33;31.83;;;9.68;;
49043;SDS011;34860;48.066;14.124;2024-03-08T02:37:23;41.58;;;12.50;;
49043;SDS011;34860;48.066;14.124;2024-03-08T02:40:11;27.17;;;10.77;;
49043;SDS011;34860;48.066;14.124;2024-03-08T02:43:00;34.35;;;12.32;;
49043;SDS011;34860;48.066;14.124;2024-03-08T02:45:49;23.98;;;11.55;;
49043;SDS011;34860;48.066;14.124;2024-03-08T02:48:39;28.13;;;10.30;;
49043;SDS011;34860;48.066;14.124;2024-03-08T02:51:28;21.73;;;10.18;;
49043;SDS011;34860;48.066;14.124;2024-03-08T02:54:19;37.70;;;11.63;;
49043;SDS011;34860;48.066;14.124;2024-03-08T02:57:08;31.75;;;11.80;;
49043;SDS011;34860;48.066;14.124;2024-03-08T02:59:56;23.50;;;10.43;;
49043;SDS011;34860;48.066;14.124;2024-03-08T03:02:46;33.95;;;13.02;;
49043;SDS011;34860;48.066;14.124;2024-03-08T03:05:35;31.90;;;10.82;;
49043;SDS011;34860;48.066;14.124;2024-03-08T03:08:23;23.70;;;8.85;;
49043;SDS011;34860;48.066;14.124;2024-03-08T03:11:13;29.58;;;12.52;;
49043;SDS011;34860;48.066;14.124;2024-03-08T03:14:02;40.83;;;10.88;;
49043;SDS011;34860;48.066;14.124;2024-03-08T03:16:51;30.37;;;9.00;;
49043;SDS011;34860;48.066;14.124;2024-03-08T03:19:40;42.10;;;13.43;;
49043;SDS011;34860;48.066;14.124;2024-03-08T03:22:29;29.42;;;11.48;;
49043;SDS011;34860;48.066;14.124;2024-03-08T03:25:18;31.73;;;12.05;;
49043;SDS011;34860;48.066;14.124;2024-03-08T03:28:13;28.13;;;9.85;;
49043;SDS011;34860;48.066;14.124;2024-03-08T03:31:05;34.42;;;12.25;;
49043;SDS011;34860;48.066;14.124;2024-03-08T03:33:56;37.67;;;15.68;;
49043;SDS011;34860;48.066;14.124;2024-03-08T03:36:48;42.08;;;14.52;;
49043;SDS011;34860;48.066;14.124;2024-03-08T03:39:37;37.85;;;14.15;;
49043;SDS011;34860;48.066;14.124;2024-03-08T03:42:35;39.00;;;13.52;;
49043;SDS011;34860;48.066;14.124;2024-03-08T03:45:26;39.33;;;13.13;;
49043;SDS011;34860;48.066;14.124;2024-03-08T03:48:15;36.08;;;12.68;;
49043;SDS011;34860;48.066;14.124;2024-03-08T03:51:04;37.60;;;11.00;;
49043;SDS011;34860;48.066;14.124;2024-03-08T03:53:52;32.65;;;11.30;;
49043;SDS011;34860;48.066;14.124;2024-03-08T03:56:41;37.22;;;11.52;;
49043;SDS011;34860;48.066;14.124;2024-03-08T03:59:29;29.80;;;10.20;;
49043;SDS011;34860;48.066;14.124;2024-03-08T04:02:19;40.13;;;12.43;;
49043;SDS011;34860;48.066;14.124;2024-03-08T04:05:08;50.08;;;17.42;;
49043;SDS011;34860;48.066;14.124;2024-03-08T04:07:58;31.30;;;10.27;;
49043;SDS011;34860;48.066;14.124;2024-03-08T04:10:46;42.97;;;12.68;;
49043;SDS011;34860;48.066;14.124;2024-03-08T04:13:35;39.17;;;14.77;;
49043;SDS011;34860;48.066;14.124;2024-03-08T04:16:24;36.55;;;11.35;;
49043;SDS011;34860;48.066;14.124;2024-03-08T04:19:15;32.75;;;11.50;;
49043;SDS011;34860;48.066;14.124;2024-03-08T04:22:03;32.13;;;13.32;;
49043;SDS011;34860;48.066;14.124;2024-03-08T04:24:52;29.87;;;12.53;;
49043;SDS011;34860;48.066;14.124;2024-03-08T04:27:41;34.15;;;13.05;;
49043;SDS011;34860;48.066;14.124;2024-03-08T04:30:29;42.15;;;11.65;;
49043;SDS011;34860;48.066;14.124;2024-03-08T04:33:18;26.05;;;10.48;;
49043;SDS011;34860;48.066;14.124;2024-03-08T04:36:08;33.92;;;12.25;;
49043;SDS011;34860;48.066;14.124;2024-03-08T04:39:00;36.30;;;13.52;;
49043;SDS011;34860;48.066;14.124;2024-03-08T04:41:49;31.00;;;11.05;;
49043;SDS011;34860;48.066;14.124;2024-03-08T04:44:38;32.45;;;12.98;;
49043;SDS011;34860;48.066;14.124;2024-03-08T04:47:27;25.43;;;10.17;;
49043;SDS011;34860;48.066;14.124;2024-03-08T04:50:15;39.20;;;13.60;;
49043;SDS011;34860;48.066;14.124;2024-03-08T04:53:06;35.05;;;10.95;;
49043;SDS011;34860;48.066;14.124;2024-03-08T04:55:55;33.17;;;11.57;;
49043;SDS011;34860;48.066;14.124;2024-03-08T04:58:45;43.05;;;14.85;;
49043;SDS011;34860;48.066;14.124;2024-03-08T05:01:34;40.10;;;10.02;;
49043;SDS011;34860;48.066;14.124;2024-03-08T05:04:24;40.17;;;13.02;;
49043;SDS011;34860;48.066;14.124;2024-03-08T05:07:13;40.10;;;13.73;;
49043;SDS011;34860;48.066;14.124;2024-03-08T05:10:03;37.80;;;13.38;;
49043;SDS011;34860;48.066;14.124;2024-03-08T05:12:53;34.60;;;12.77;;
49043;SDS011;34860;48.066;14.124;2024-03-08T05:15:43;33.80;;;11.60;;
49043;SDS011;34860;48.066;14.124;2024-03-08T05:18:31;49.22;;;15.38;;
49043;SDS011;34860;48.066;14.124;2024-03-08T05:21:20;50.55;;;16.20;;
49043;SDS011;34860;48.066;14.124;2024-03-08T05:24:08;42.50;;;12.23;;
49043;SDS011;34860;48.066;14.124;2024-03-08T05:26:59;37.53;;;12.77;;
49043;SDS011;34860;48.066;14.124;2024-03-08T05:29:47;34.58;;;12.05;;
49043;SDS011;34860;48.066;14.124;2024-03-08T05:32:36;28.77;;;11.27;;
49043;SDS011;34860;48.066;14.124;2024-03-08T05:35:24;27.45;;;10.63;;
49043;SDS011;34860;48.066;14.124;2024-03-08T05:38:13;36.70;;;12.70;;
49043;SDS011;34860;48.066;14.124;2024-03-08T05:41:04;31.02;;;11.30;;
49043;SDS011;34860;48.066;14.124;2024-03-08T05:43:55;32.45;;;11.15;;
49043;SDS011;34860;48.066;14.124;2024-03-08T05:46:44;40.30;;;12.40;;
49043;SDS011;34860;48.066;14.124;2024-03-08T05:49:33;28.20;;;11.65;;
49043;SDS011;34860;48.066;14.124;2024-03-08T05:52:22;27.77;;;10.52;;
49043;SDS011;34860;48.066;14.124;2024-03-08T05:55:10;38.58;;;13.32;;
49043;SDS011;34860;48.066;14.124;2024-03-08T05:58:01;33.83;;;12.57;;
49043;SDS011;34860;48.066;14.124;2024-03-08T06:00:51;32.55;;;10.15;;
49043;SDS011;34860;48.066;14.124;2024-03-08T06:03:40;32.47;;;12.05;;
49043;SDS011;34860;48.066;14.124;2024-03-08T06:06:32;30.85;;;11.43;;
49043;SDS011;34860;48.066;14.124;2024-03-08T06:09:20;36.42;;;10.45;;
49043;SDS011;34860;48.066;14.124;2024-03-08T06:12:10;39.17;;;12.35;;
49043;SDS011;34860;48.066;14.124;2024-03-08T06:14:58;35.75;;;11.75;;
49043;SDS011;34860;48.066;14.124;2024-03-08T06:17:49;38.42;;;11.60;;
49043;SDS011;34860;48.066;14.124;2024-03-08T06:20:39;30.80;;;11.15;;
49043;SDS011;34860;48.066;14.124;2024-03-08T06:23:30;37.13;;;12.30;;
49043;SDS011;34860;48.066;14.124;2024-03-08T06:26:19;23.33;;;10.13;;
49043;SDS011;34860;48.066;14.124;2024-03-08T06:29:08;38.72;;;12.82;;
49043;SDS011;34860;48.066;14.124;2024-03-08T06:31:57;32.95;;;10.43;;
49043;SDS011;34860;48.066;14.124;2024-03-08T06:34:48;28.48;;;9.05;;
49043;SDS011;34860;48.066;14.124;2024-03-08T06:37:37;30.02;;;11.23;;
49043;SDS011;34860;48.066;14.124;2024-03-08T06:40:25;24.17;;;9.40;;
49043;SDS011;34860;48.066;14.124;2024-03-08T06:43:14;31.63;;;13.15;;
49043;SDS011;34860;48.066;14.124;2024-03-08T06:46:04;32.40;;;11.48;;
49043;SDS011;34860;48.066;14.124;2024-03-08T06:48:53;31.73;;;11.65;;
49043;SDS011;34860;48.066;14.124;2024-03-08T06:51:43;29.60;;;10.95;;
49043;SDS011;34860;48.066;14.124;2024-03-08T06:54:31;31.08;;;10.05;;
49043;SDS011;34860;48.066;14.124;2024-03-08T06:57:20;28.38;;;10.38;;
49043;SDS011;34860;48.066;14.124;2024-03-08T07:00:10;27.77;;;10.43;;
49043;SDS011;34860;48.066;14.124;2024-03-08T07:03:06;26.27;;;8.93;;
49043;SDS011;34860;48.066;14.124;2024-03-08T07:05:59;30.35;;;9.82;;
49043;SDS011;34860;48.066;14.124;2024-03-08T07:08:50;27.08;;;9.15;;
49043;SDS011;34860;48.066;14.124;2024-03-08T07:11:39;24.70;;;9.07;;
49043;SDS011;34860;48.066;14.124;2024-03-08T07:14:30;23.42;;;8.93;;
49043;SDS011;34860;48.066;14.124;2024-03-08T07:17:19;22.73;;;9.05;;
49043;SDS011;34860;48.066;14.124;2024-03-08T07:20:08;26.92;;;10.35;;
49043;SDS011;34860;48.066;14.124;2024-03-08T07:22:59;22.88;;;8.43;;
49043;SDS011;34860;48.066;14.124;2024-03-08T07:25:49;26.38;;;9.32;;
49043;SDS011;34860;48.066;14.124;2024-03-08T07:28:38;27.20;;;9.88;;
49043;SDS011;34860;48.066;14.124;2024-03-08T07:31:26;36.55;;;10.93;;
49043;SDS011;34860;48.066;14.124;2024-03-08T07:34:25;37.80;;;13.80;;
49043;SDS011;34860;48.066;14.124;2024-03-08T07:37:13;30.38;;;10.32;;
49043;SDS011;34860;48.066;14.124;2024-03-08T07:40:02;24.77;;;8.57;;
49043;SDS011;34860;48.066;14.124;2024-03-08T07:42:52;20.58;;;8.65;;
49043;SDS011;34860;48.066;14.124;2024-03-08T07:45:41;20.50;;;7.65;;
49043;SDS011;34860;48.066;14.124;2024-03-08T07:48:29;21.20;;;7.15;;
49043;SDS011;34860;48.066;14.124;2024-03-08T07:51:18;25.52;;;9.43;;
49043;SDS011;34860;48.066;14.124;2024-03-08T07:54:07;20.58;;;9.82;;
49043;SDS011;34860;48.066;14.124;2024-03-08T07:56:56;25.38;;;8.65;;
49043;SDS011;34860;48.066;14.124;2024-03-08T07:59:46;20.02;;;7.38;;
49043;SDS011;34860;48.066;14.124;2024-03-08T08:02:35;24.33;;;8.95;;
49043;SDS011;34860;48.066;14.124;2024-03-08T08:05:24;30.52;;;8.93;;
49043;SDS011;34860;48.066;14.124;2024-03-08T08:08:14;24.98;;;10.05;;
49043;SDS011;34860;48.066;14.124;2024-03-08T08:11:03;29.40;;;11.27;;
49043;SDS011;34860;48.066;14.124;2024-03-08T08:13:51;24.13;;;9.27;;
49043;SDS011;34860;48.066;14.124;2024-03-08T08:16:43;23.77;;;9.88;;
49043;SDS011;34860;48.066;14.124;2024-03-08T08:19:32;28.67;;;8.80;;
49043;SDS011;34860;48.066;14.124;2024-03-08T08:22:20;32.55;;;9.32;;
49043;SDS011;34860;48.066;14.124;2024-03-08T08:25:09;27.65;;;8.90;;
49043;SDS011;34860;48.066;14.124;2024-03-08T08:28:00;25.20;;;9.85;;
49043;SDS011;34860;48.066;14.124;2024-03-08T08:30:51;35.60;;;10.13;;
49043;SDS011;34860;48.066;14.124;2024-03-08T08:33:40;18.58;;;7.13;;
49043;SDS011;34860;48.066;14.124;2024-03-08T08:36:31;24.42;;;9.48;;
49043;SDS011;34860;48.066;14.124;2024-03-08T08:39:19;29.65;;;9.73;;
49043;SDS011;34860;48.066;14.124;2024-03-08T08:42:09;20.17;;;8.25;;
49043;SDS011;34860;48.066;14.124;2024-03-08T08:44:58;27.38;;;10.18;;
49043;SDS011;34860;48.066;14.124;2024-03-08T08:47:51;28.48;;;9.60;;
49043;SDS011;34860;48.066;14.124;2024-03-08T08:50:41;20.05;;;8.68;;
49043;SDS011;34860;48.066;14.124;2024-03-08T08:53:31;25.98;;;9.10;;
49043;SDS011;34860;48.066;14.124;2024-03-08T08:56:22;23.42;;;8.25;;
49043;SDS011;34860;48.066;14.124;2024-03-08T08:59:12;25.80;;;8.80;;
49043;SDS011;34860;48.066;14.124;2024-03-08T09:02:01;20.00;;;9.18;;
49043;SDS011;34860;48.066;14.124;2024-03-08T09:04:50;18.40;;;9.13;;
49043;SDS011;34860;48.066;14.124;2024-03-08T09:07:40;20.88;;;7.78;;
49043;SDS011;34860;48.066;14.124;2024-03-08T09:10:29;36.53;;;9.77;;
49043;SDS011;34860;48.066;14.124;2024-03-08T09:13:18;23.48;;;9.95;;
49043;SDS011;34860;48.066;14.124;2024-03-08T09:16:08;23.30;;;9.05;;
49043;SDS011;34860;48.066;14.124;2024-03-08T09:18:57;22.42;;;6.90;;
49043;SDS011;34860;48.066;14.124;2024-03-08T09:21:46;24.45;;;9.27;;
49043;SDS011;34860;48.066;14.124;2024-03-08T09:24:36;28.60;;;10.07;;
49043;SDS011;34860;48.066;14.124;2024-03-08T09:27:24;27.20;;;7.57;;
49043;SDS011;34860;48.066;14.124;2024-03-08T09:30:13;19.02;;;7.68;;
49043;SDS011;34860;48.066;14.124;2024-03-08T09:33:02;28.48;;;9.85;;
49043;SDS011;34860;48.066;14.124;2024-03-08T09:35:50;23.80;;;9.45;;
49043;SDS011;34860;48.066;14.124;2024-03-08T09:38:40;26.20;;;8.57;;
49043;SDS011;34860;48.066;14.124;2024-03-08T09:41:31;23.58;;;8.65;;
49043;SDS011;34860;48.066;14.124;2024-03-08T09:44:21;24.25;;;9.07;;
49043;SDS011;34860;48.066;14.124;2024-03-08T09:47:14;23.23;;;8.13;;
49043;SDS011;34860;48.066;14.124;2024-03-08T09:50:03;25.25;;;9.30;;
49043;SDS011;34860;48.066;14.124;2024-03-08T09:52:55;27.45;;;8.63;;
49043;SDS011;34860;48.066;14.124;2024-03-08T09:55:45;19.77;;;7.70;;
49043;SDS011;34860;48.066;14.124;2024-03-08T09:58:37;24.15;;;7.93;;
49043;SDS011;34860;48.066;14.124;2024-03-08T10:01:41;33.45;;;8.02;;
49043;SDS011;34860;48.066;14.124;2024-03-08T10:04:29;18.88;;;7.03;;
49043;SDS011;34860;48.066;14.124;2024-03-08T10:07:19;27.55;;;9.82;;
49043;SDS011;34860;48.066;14.124;2024-03-08T10:10:07;21.67;;;7.82;;
49043;SDS011;34860;48.066;14.124;2024-03-08T10:12:59;23.73;;;7.90;;
49043;SDS011;34860;48.066;14.124;2024-03-08T10:15:49;19.35;;;8.00;;
49043;SDS011;34860;48.066;14.124;2024-03-08T10:18:38;17.25;;;7.65;;
49043;SDS011;34860;48.066;14.124;2024-03-08T10:21:26;19.23;;;7.78;;
49043;SDS011;34860;48.066;14.124;2024-03-08T10:24:15;21.23;;;8.05;;
49043;SDS011;34860;48.066;14.124;2024-03-08T10:27:04;18.40;;;6.03;;
49043;SDS011;34860;48.066;14.124;2024-03-08T10:29:52;13.63;;;6.70;;
49043;SDS011;34860;48.066;14.124;2024-03-08T10:32:42;16.15;;;6.25;;
49043;SDS011;34860;48.066;14.124;2024-03-08T10:35:30;18.67;;;7.28;;
49043;SDS011;34860;48.066;14.124;2024-03-08T10:38:19;22.80;;;7.85;;
49043;SDS011;34860;48.066;14.124;2024-03-08T10:41:10;24.98;;;7.32;;
49043;SDS011;34860;48.066;14.124;2024-03-08T10:44:04;16.33;;;6.60;;
49043;SDS011;34860;48.066;14.124;2024-03-08T10:47:00;17.30;;;6.85;;
49043;SDS011;34860;48.066;14.124;2024-03-08T10:49:57;19.52;;;7.88;;
49043;SDS011;34860;48.066;14.124;2024-03-08T10:52:55;16.73;;;7.40;;
49043;SDS011;34860;48.066;14.124;2024-03-08T10:55:48;18.75;;;7.47;;
49043;SDS011;34860;48.066;14.124;2024-03-08T10:58:40;22.92;;;8.32;;
49043;SDS011;34860;48.066;14.124;2024-03-08T11:01:31;23.95;;;7.60;;
49043;SDS011;34860;48.066;14.124;2024-03-08T11:04:19;20.63;;;7.03;;
49043;SDS011;34860;48.066;14.124;2024-03-08T11:07:11;16.73;;;5.60;;
49043;SDS011;34860;48.066;14.124;2024-03-08T11:10:04;19.63;;;6.90;;
49043;SDS011;34860;48.066;14.124;2024-03-08T11:12:57;17.77;;;7.85;;
49043;SDS011;34860;48.066;14.124;2024-03-08T11:15:46;19.25;;;6.43;;
49043;SDS011;34860;48.066;14.124;2024-03-08T11:18:35;15.48;;;6.32;;
49043;SDS011;34860;48.066;14.124;2024-03-08T11:21:24;14.68;;;5.85;;
49043;SDS011;34860;48.066;14.124;2024-03-08T11:24:15;18.45;;;7.00;;
49043;SDS011;34860;48.066;14.124;2024-03-08T11:27:04;18.50;;;6.50;;
49043;SDS011;34860;48.066;14.124;2024-03-08T11:30:00;16.92;;;5.75;;
49043;SDS011;34860;48.066;14.124;2024-03-08T11:33:00;13.75;;;5.70;;
49043;SDS011;34860;48.066;14.124;2024-03-08T11:35:50;20.77;;;6.57;;
49043;SDS011;34860;48.066;14.124;2024-03-08T11:38:40;13.07;;;5.53;;
49043;SDS011;34860;48.066;14.124;2024-03-08T11:41:32;22.55;;;7.07;;
49043;SDS011;34860;48.066;14.124;2024-03-08T11:44:20;18.63;;;5.97;;
49043;SDS011;34860;48.066;14.124;2024-03-08T11:47:09;16.50;;;5.60;;
49043;SDS011;34860;48.066;14.124;2024-03-08T11:49:58;16.98;;;6.20;;
49043;SDS011;34860;48.066;14.124;2024-03-08T11:52:47;16.23;;;6.40;;
49043;SDS011;34860;48.066;14.124;2024-03-08T11:55:36;14.98;;;5.20;;
49043;SDS011;34860;48.066;14.124;2024-03-08T11:58:26;20.25;;;7.47;;
49043;SDS011;34860;48.066;14.124;2024-03-08T12:01:15;15.15;;;5.68;;
49043;SDS011;34860;48.066;14.124;2024-03-08T12:04:04;19.75;;;6.18;;
49043;SDS011;34860;48.066;14.124;2024-03-08T12:06:53;13.32;;;5.65;;
49043;SDS011;34860;48.066;14.124;2024-03-08T12:09:41;15.15;;;5.78;;
49043;SDS011;34860;48.066;14.124;2024-03-08T12:12:33;17.10;;;4.50;;
49043;SDS011;34860;48.066;14.124;2024-03-08T12:15:23;15.40;;;5.55;;
49043;SDS011;34860;48.066;14.124;2024-03-08T12:18:12;19.70;;;6.32;;
49043;SDS011;34860;48.066;14.124;2024-03-08T12:21:04;13.27;;;5.20;;
49043;SDS011;34860;48.066;14.124;2024-03-08T12:24:04;13.43;;;6.35;;
49043;SDS011;34860;48.066;14.124;2024-03-08T12:26:55;11.48;;;5.40;;
49043;SDS011;34860;48.066;14.124;2024-03-08T12:29:44;14.90;;;5.88;;
49043;SDS011;34860;48.066;14.124;2024-03-08T12:32:35;15.32;;;5.25;;
49043;SDS011;34860;48.066;14.124;2024-03-08T12:35:26;19.23;;;5.78;;
49043;SDS011;34860;48.066;14.124;2024-03-08T12:38:15;14.32;;;5.57;;
49043;SDS011;34860;48.066;14.124;2024-03-08T12:41:04;15.30;;;5.70;;
49043;SDS011;34860;48.066;14.124;2024-03-08T12:43:52;13.88;;;5.07;;
49043;SDS011;34860;48.066;14.124;2024-03-08T12:46:42;12.45;;;4.82;;
49043;SDS011;34860;48.066;14.124;2024-03-08T12:49:34;12.93;;;5.28;;
49043;SDS011;34860;48.066;14.124;2024-03-08T12:52:22;13.63;;;4.88;;
49043;SDS011;34860;48.066;14.124;2024-03-08T12:55:11;12.00;;;4.78;;
49043;SDS011;34860;48.066;14.124;2024-03-08T12:57:59;15.80;;;6.40;;
49043;SDS011;34860;48.066;14.124;2024-03-08T13:00:48;14.60;;;5.88;;
49043;SDS011;34860;48.066;14.124;2024-03-08T13:03:39;12.27;;;5.10;;
49043;SDS011;34860;48.066;14.124;2024-03-08T13:06:29;11.98;;;5.47;;
49043;SDS011;34860;48.066;14.124;2024-03-08T13:09:18;11.73;;;5.18;;
49043;SDS011;34860;48.066;14.124;2024-03-08T13:12:07;14.65;;;5.10;;
49043;SDS011;34860;48.066;14.124;2024-03-08T13:14:55;19.20;;;5.70;;
49043;SDS011;34860;48.066;14.124;2024-03-08T13:17:45;33.05;;;7.15;;
49043;SDS011;34860;48.066;14.124;2024-03-08T13:20:33;12.32;;;4.93;;
49043;SDS011;34860;48.066;14.124;2024-03-08T13:23:27;10.57;;;4.88;;
49043;SDS011;34860;48.066;14.124;2024-03-08T13:26:16;17.80;;;5.30;;
49043;SDS011;34860;48.066;14.124;2024-03-08T13:29:04;14.80;;;5.07;;
49043;SDS011;34860;48.066;14.124;2024-03-08T13:31:53;9.75;;;3.95;;
49043;SDS011;34860;48.066;14.124;2024-03-08T13:34:44;14.35;;;4.95;;
49043;SDS011;34860;48.066;14.124;2024-03-08T13:37:34;10.93;;;3.88;;
49043;SDS011;34860;48.066;14.124;2024-03-08T13:40:24;12.98;;;3.85;;
49043;SDS011;34860;48.066;14.124;2024-03-08T13:43:12;10.02;;;4.32;;
49043;SDS011;34860;48.066;14.124;2024-03-08T13:46:01;10.82;;;4.38;;
49043;SDS011;34860;48.066;14.124;2024-03-08T13:48:50;15.43;;;3.95;;
49043;SDS011;34860;48.066;14.124;2024-03-08T13:51:48;12.10;;;3.38;;
49043;SDS011;34860;48.066;14.124;2024-03-08T13:54:37;15.23;;;4.10;;
49043;SDS011;34860;48.066;14.124;2024-03-08T13:57:27;10.23;;;4.07;;
49043;SDS011;34860;48.066;14.124;2024-03-08T14:00:15;11.00;;;4.65;;
49043;SDS011;34860;48.066;14.124;2024-03-08T14:03:04;7.72;;;3.45;;
49043;SDS011;34860;48.066;14.124;2024-03-08T14:05:53;16.90;;;3.63;;
49043;SDS011;34860;48.066;14.124;2024-03-08T14:08:44;10.65;;;4.50;;
49043;SDS011;34860;48.066;14.124;2024-03-08T14:11:33;10.68;;;4.30;;
49043;SDS011;34860;48.066;14.124;2024-03-08T14:14:22;6.90;;;2.78;;
49043;SDS011;34860;48.066;14.124;2024-03-08T14:17:11;11.18;;;3.20;;
49043;SDS011;34860;48.066;14.124;2024-03-08T14:20:04;8.02;;;3.20;;
49043;SDS011;34860;48.066;14.124;2024-03-08T14:22:54;7.30;;;2.58;;
49043;SDS011;34860;48.066;14.124;2024-03-08T14:25:43;10.50;;;3.38;;
49043;SDS011;34860;48.066;14.124;2024-03-08T14:28:32;8.35;;;2.83;;
49043;SDS011;34860;48.066;14.124;2024-03-08T14:31:22;6.60;;;2.67;;
49043;SDS011;34860;48.066;14.124;2024-03-08T14:34:12;9.25;;;3.67;;
49043;SDS011;34860;48.066;14.124;2024-03-08T14:37:02;9.52;;;3.15;;
49043;SDS011;34860;48.066;14.124;2024-03-08T14:39:55;6.32;;;3.17;;
49043;SDS011;34860;48.066;14.124;2024-03-08T14:42:43;6.35;;;2.47;;
49043;SDS011;34860;48.066;14.124;2024-03-08T14:45:32;9.27;;;3.00;;
49043;SDS011;34860;48.066;14.124;2024-03-08T14:48:23;8.02;;;3.22;;
49043;SDS011;34860;48.066;14.124;2024-03-08T14:51:11;8.57;;;2.95;;
49043;SDS011;34860;48.066;14.124;2024-03-08T14:54:01;10.25;;;3.83;;
49043;SDS011;34860;48.066;14.124;2024-03-08T14:56:53;11.63;;;3.83;;
49043;SDS011;34860;48.066;14.124;2024-03-08T14:59:43;7.68;;;2.83;;
49043;SDS011;34860;48.066;14.124;2024-03-08T15:02:32;7.70;;;3.67;;
49043;SDS011;34860;48.066;14.124;2024-03-08T15:05:25;8.63;;;3.47;;
49043;SDS011;34860;48.066;14.124;2024-03-08T15:08:14;9.50;;;3.10;;
49043;SDS011;34860;48.066;14.124;2024-03-08T15:11:06;6.53;;;2.80;;
49043;SDS011;34860;48.066;14.124;2024-03-08T15:13:55;9.40;;;3.30;;
49043;SDS011;34860;48.066;14.124;2024-03-08T15:16:45;7.45;;;3.08;;
49043;SDS011;34860;48.066;14.124;2024-03-08T15:19:35;10.35;;;3.78;;
49043;SDS011;34860;48.066;14.124;2024-03-08T15:22:26;8.85;;;3.67;;
49043;SDS011;34860;48.066;14.124;2024-03-08T15:25:15;9.23;;;3.72;;
49043;SDS011;34860;48.066;14.124;2024-03-08T15:28:07;10.32;;;2.80;;
49043;SDS011;34860;48.066;14.124;2024-03-08T15:31:02;11.85;;;2.03;;
49043;SDS011;34860;48.066;14.124;2024-03-08T15:33:53;8.13;;;3.20;;
49043;SDS011;34860;48.066;14.124;2024-03-08T15:36:48;7.05;;;2.80;;
49043;SDS011;34860;48.066;14.124;2024-03-08T15:39:39;7.75;;;3.42;;
49043;SDS011;34860;48.066;14.124;2024-03-08T15:42:28;8.38;;;2.28;;
49043;SDS011;34860;48.066;14.124;2024-03-08T15:45:16;8.57;;;2.97;;
49043;SDS011;34860;48.066;14.124;2024-03-08T15:48:05;6.40;;;2.17;;
49043;SDS011;34860;48.066;14.124;2024-03-08T15:50:55;5.90;;;2.20;;
49043;SDS011;34860;48.066;14.124;2024-03-08T15:53:43;6.35;;;2.60;;
49043;SDS011;34860;48.066;14.124;2024-03-08T15:56:41;5.90;;;2.53;;
49043;SDS011;34860;48.066;14.124;2024-03-08T15:59:29;4.63;;;1.80;;
49043;SDS011;34860;48.066;14.124;2024-03-08T16:02:20;4.57;;;2.38;;
49043;SDS011;34860;48.066;14.124;2024-03-08T16:05:10;4.72;;;2.00;;
49043;SDS011;34860;48.066;14.124;2024-03-08T16:08:01;7.35;;;2.15;;
49043;SDS011;34860;48.066;14.124;2024-03-08T16:10:51;4.95;;;2.05;;
49043;SDS011;34860;48.066;14.124;2024-03-08T16:13:43;7.68;;;2.65;;
49043;SDS011;34860;48.066;14.124;2024-03-08T16:16:32;6.50;;;1.70;;
49043;SDS011;34860;48.066;14.124;2024-03-08T16:19:20;3.28;;;1.23;;
49043;SDS011;34860;48.066;14.124;2024-03-08T16:22:10;5.78;;;2.10;;
49043;SDS011;34860;48.066;14.124;2024-03-08T16:24:58;6.30;;;2.58;;
49043;SDS011;34860;48.066;14.124;2024-03-08T16:27:47;6.93;;;1.85;;
49043;SDS011;34860;48.066;14.124;2024-03-08T16:30:37;6.82;;;2.60;;